Harfang Two — CRA2079 — position and weather

sailwx.info

Track history (hours):
 
Tides and Currents Weather Stations Pressure Air Temp Water Temp Dewpoint Dewpoint Depression Visibility Wind Speed Wind Dir Waves Ship Positions

Harfang Two

Last reported at 2016-Feb-07 17:32 UTC. Time now 2016-Feb-13 23:42 UTC.
Position N 38°42' W 009°11'.

Length 14 m.

Type: Sailing vessel. MMSI: 263848990.

Date/timePositionNaut miles runAvg speedWind from/ knotsBaromVisibWave heightAir tempDewpointWater temp
2016-Feb-07 17:32N 38°42' W 009°11'2 1.7
2016-Feb-07 16:29N 38°41' W 009°13'4 3.8
2016-Feb-07 15:25N 38°42' W 009°08'1 1.0
2016-Feb-07 14:33N 38°42' W 009°09'  
2016-Jan-31 15:21N 38°42' W 009°10'1 1.2
2016-Jan-31 14:32N 38°42' W 009°11'1 0.7
2016-Jan-31 12:28N 38°41' W 009°13'2 2.4
2016-Jan-31 11:29N 38°42' W 009°10'0 0.0
2016-Jan-29 18:03N 38°42' W 009°10'1 1.5
2016-Jan-29 17:33N 38°42' W 009°09'1 1.2
2016-Jan-29 16:32N 38°41' W 009°10'1 0.6
2016-Jan-29 15:32N 38°41' W 009°11'1 0.7
2016-Jan-29 14:31N 38°42' W 009°11'  
Track history (hours):
 
Tides and Currents Weather Stations Pressure Air Temp Water Temp Dewpoint Dewpoint Depression Visibility Wind Speed Wind Dir Waves Ship Positions

Harfang Two

Last reported at 2016-Feb-07 17:32 UTC. Time now 2016-Feb-13 23:42 UTC.
Position N 38°42' W 009°11'.

Length 14 m.

Type: Sailing vessel. MMSI: 263848990.

Date/timePositionNaut miles runAvg speedWind from/ knotsBaromVisibWave heightAir tempDewpointWater temp
2016-Feb-07 17:32N 38°42' W 009°11'2 1.7
2016-Feb-07 16:29N 38°41' W 009°13'4 3.8
2016-Feb-07 15:25N 38°42' W 009°08'1 1.0
2016-Feb-07 14:33N 38°42' W 009°09'  
2016-Jan-31 15:21N 38°42' W 009°10'1 1.2
2016-Jan-31 14:32N 38°42' W 009°11'1 0.7
2016-Jan-31 12:28N 38°41' W 009°13'2 2.4
2016-Jan-31 11:29N 38°42' W 009°10'0 0.0
2016-Jan-29 18:03N 38°42' W 009°10'1 1.5
2016-Jan-29 17:33N 38°42' W 009°09'1 1.2
2016-Jan-29 16:32N 38°41' W 009°10'1 0.6
2016-Jan-29 15:32N 38°41' W 009°11'1 0.7
2016-Jan-29 14:31N 38°42' W 009°11'  

Dump ship's entire track history